Time;durP1;ratioP1;P1;durP2;ratioP2;P2;SDS_P1;SDS_P2;PMS_P1;PMS_P2;Temp;Humidity;BMP_temperature;BMP_pressure;BME280_temperature;BME280_humidity;BME280_pressure;Samples;Min_cycle;Max_cycle;Signal;HPM_P1;HPM_P2
2023/03/24 00:01:17;;;;;;;8.10;3.47;;;;;;;11.31;100.00;99731.03;5055527;28;20134;-94
2023/03/24 00:03:47;;;;;;;5.13;3.10;;;;;;;11.37;100.00;99736.22;5055909;28;20033;-94
2023/03/24 00:06:13;;;;;;;5.15;3.20;;;;;;;11.35;100.00;99726.56;5056113;28;20020;-93
2023/03/24 00:08:42;;;;;;;5.35;3.10;;;;;;;11.56;100.00;99754.56;5074265;28;20064;-93
2023/03/24 00:11:10;;;;;;;5.22;3.05;;;;;;;11.77;100.00;99786.94;5056206;28;20035;-94
2023/03/24 00:13:37;;;;;;;6.03;3.33;;;;;;;11.76;100.00;99761.38;5074058;28;20119;-92
2023/03/24 00:16:18;;;;;;;5.97;3.20;;;;;;;11.74;100.00;99770.25;5055889;28;20356;-93
2023/03/24 00:18:44;;;;;;;6.22;3.03;;;;;;;11.62;100.00;99739.50;5074007;28;20457;-94
2023/03/24 00:21:10;;;;;;;7.15;3.17;;;;;;;11.90;100.00;99770.94;5055479;28;20452;-93
2023/03/24 00:23:36;;;;;;;5.43;2.92;;;;;;;11.91;100.00;99778.91;5073819;28;20025;-95
2023/03/24 00:26:14;;;;;;;5.53;3.30;;;;;;;11.69;100.00;99733.25;5039191;28;20029;-94
2023/03/24 00:28:41;;;;;;;8.10;2.88;;;;;;;11.59;100.00;99709.53;5073576;28;20103;-92
2023/03/24 00:31:08;;;;;;;6.03;3.00;;;;;;;11.73;100.00;99720.84;5064894;28;20032;-93
2023/03/24 00:33:35;;;;;;;6.78;3.33;;;;;;;11.93;100.00;99762.97;5079990;28;20032;-90
2023/03/24 00:36:05;;;;;;;6.63;3.08;;;;;;;11.89;100.00;99751.56;5075571;28;20052;-93
2023/03/24 00:38:33;;;;;;;6.43;3.00;;;;;;;11.70;100.00;99700.59;5055438;28;20029;-92
2023/03/24 00:40:59;;;;;;;6.00;3.00;;;;;;;11.91;100.00;99728.59;5073475;28;20035;-92
2023/03/24 00:43:25;;;;;;;6.57;3.00;;;;;;;12.06;100.00;99726.63;5073575;28;20047;-91
2023/03/24 00:46:00;;;;;;;5.13;3.10;;;;;;;11.92;100.00;99697.72;5073468;28;20441;-91
2023/03/24 00:48:25;;;;;;;6.32;2.92;;;;;;;12.03;100.00;99722.25;5055369;28;20031;-92
2023/03/24 00:50:51;;;;;;;5.07;3.03;;;;;;;12.07;99.97;99723.97;5055075;28;20021;-93
2023/03/24 00:53:17;;;;;;;4.18;2.80;;;;;;;12.07;99.88;99683.38;5055671;28;20039;-90
2023/03/24 00:55:46;;;;;;;4.47;3.00;;;;;;;12.30;100.00;99728.09;5055115;28;20032;-90
2023/03/24 00:58:20;;;;;;;6.53;2.90;;;;;;;11.98;100.00;99665.84;5055295;28;20430;-92
2023/03/24 01:00:47;;;;;;;4.28;2.80;;;;;;;11.97;99.16;99654.38;5073277;28;20027;-94
2023/03/24 01:03:16;;;;;;;4.55;2.90;;;;;;;11.99;99.96;99657.00;5072846;28;20039;-91
2023/03/24 01:05:46;;;;;;;5.90;3.22;;;;;;;12.18;100.00;99682.31;5073680;28;20028;-92
2023/03/24 01:08:13;;;;;;;4.75;2.83;;;;;;;12.14;99.86;99663.88;5055327;28;20039;-92
2023/03/24 01:10:49;;;;;;;5.20;2.70;;;;;;;12.27;100.00;99687.50;5073690;28;20024;-91
2023/03/24 01:13:16;;;;;;;3.75;2.72;;;;;;;12.23;100.00;99690.22;5056213;28;20048;-93
2023/03/24 01:15:44;;;;;;;4.93;2.88;;;;;;;12.38;100.00;99721.78;5076570;28;20039;-93
2023/03/24 01:18:11;;;;;;;4.25;2.60;;;;;;;12.14;100.00;99661.22;5076792;28;20413;-94
2023/03/24 01:20:39;;;;;;;3.38;2.33;;;;;;;12.15;100.00;99686.78;5058881;28;20035;-94
2023/03/24 01:23:05;;;;;;;8.25;3.13;;;;;;;12.15;100.00;99674.41;5059805;28;20032;-93
2023/03/24 01:25:31;;;;;;;5.03;2.90;;;;;;;12.24;100.00;99682.22;5059103;28;20024;-94
2023/03/24 01:28:04;;;;;;;4.80;2.80;;;;;;;12.16;100.00;99680.59;5087422;28;20033;-95
2023/03/24 01:30:44;;;;;;;6.32;2.92;;;;;;;12.07;100.00;99656.91;5081868;28;20021;-96
2023/03/24 01:33:09;;;;;;;5.03;3.10;;;;;;;11.88;100.00;99630.69;5066186;28;20035;-96
2023/03/24 01:35:35;;;;;;;6.10;2.90;;;;;;;11.87;100.00;99634.25;5088283;28;20024;-96
2023/03/24 01:38:13;;;;;;;5.50;3.05;;;;;;;11.78;100.00;99632.56;5070158;28;20086;-96
2023/03/24 01:40:42;;;;;;;5.13;2.70;;;;;;;11.79;100.00;99626.38;5059009;28;20063;-96
2023/03/24 01:43:41;;;;;;;5.38;3.13;;;;;;;11.78;100.00;99618.47;5086291;28;20017;-96
2023/03/24 01:46:17;;;;;;;5.20;2.83;;;;;;;11.94;100.00;99672.06;5085679;28;20048;-96
2023/03/24 01:51:48;;;;;;;5.88;3.13;;;;;;;12.08;100.00;99675.44;4775519;26;20054;-70
2023/03/24 01:54:24;;;;;;;6.13;3.05;;;;;;;12.09;100.00;99673.66;4996649;28;20030;-69
2023/03/24 01:56:55;;;;;;;4.68;3.00;;;;;;;12.09;100.00;99677.16;4996355;28;20498;-68
2023/03/24 01:59:27;;;;;;;7.13;3.00;;;;;;;12.16;100.00;99670.00;4996422;28;20384;-68
2023/03/24 02:02:01;;;;;;;5.63;3.70;;;;;;;12.15;100.00;99666.47;4996398;28;20030;-71
2023/03/24 02:04:33;;;;;;;6.20;3.35;;;;;;;12.16;100.00;99662.06;4996156;28;20031;-70
2023/03/24 02:07:07;;;;;;;7.05;3.20;;;;;;;12.12;100.00;99668.28;4996387;28;20029;-69
2023/03/24 02:09:32;;;;;;;7.22;3.05;;;;;;;12.15;100.00;99655.00;4996180;28;20061;-70
2023/03/24 02:11:59;;;;;;;5.35;3.20;;;;;;;12.15;100.00;99674.41;4996056;28;20026;-69
2023/03/24 02:14:25;;;;;;;6.20;3.20;;;;;;;12.12;100.00;99650.66;4996097;28;20030;-69
2023/03/24 02:17:15;;;;;;;4.32;3.15;;;;;;;12.10;100.00;99651.56;4996079;28;20407;-71
2023/03/24 02:20:09;;;;;;;6.80;3.28;;;;;;;12.07;100.00;99652.47;4995912;28;20061;-69
2023/03/24 02:23:13;;;;;;;6.65;3.38;;;;;;;12.10;100.00;99654.22;4995858;28;20077;-70
2023/03/24 02:25:41;;;;;;;4.32;3.20;;;;;;;12.06;100.00;99663.97;4980113;28;20049;-68
2023/03/24 02:28:23;;;;;;;5.68;3.35;;;;;;;12.08;100.00;99650.72;4996036;28;20029;-69
2023/03/24 02:30:58;;;;;;;;;;;;;;;12.09;100.00;99660.41;4996266;28;20077;-68
2023/03/24 02:33:38;;;;;;;7.40;3.50;;;;;;;12.03;100.00;99666.66;4994527;28;19909;-69
2023/03/24 02:36:47;;;;;;;5.32;3.20;;;;;;;12.05;100.00;99654.28;4995559;28;20085;-69
2023/03/24 02:39:36;;;;;;;4.20;2.83;;;;;;;12.05;100.00;99650.75;4995580;28;20037;-68
2023/03/24 02:42:10;;;;;;;7.82;3.33;;;;;;;12.03;100.00;99656.06;4995649;28;20022;-68
2023/03/24 02:44:41;;;;;;;5.97;3.45;;;;;;;12.05;100.00;99646.34;4995483;28;20030;-69
2023/03/24 02:47:25;;;;;;;5.75;3.20;;;;;;;12.08;100.00;99650.72;4995740;28;20028;-69
2023/03/24 02:50:07;;;;;;;4.95;3.03;;;;;;;12.09;100.00;99666.56;4998796;28;20132;-69
2023/03/24 02:53:16;;;;;;;6.93;3.00;;;;;;;12.13;100.00;99668.28;5014901;28;20040;-69
2023/03/24 02:55:53;;;;;;;4.80;3.17;;;;;;;12.12;100.00;99666.53;4995016;28;20038;-70
2023/03/24 02:58:34;;;;;;;4.95;2.90;;;;;;;12.09;100.00;99663.94;5014893;28;20032;-70
2023/03/24 03:01:07;;;;;;;6.40;3.03;;;;;;;12.13;100.00;99678.00;5014678;28;20030;-70
2023/03/24 03:03:45;;;;;;;4.57;3.05;;;;;;;12.14;100.00;99682.41;5014754;28;20471;-70
2023/03/24 03:06:17;;;;;;;8.25;3.20;;;;;;;12.18;100.00;99702.66;5014669;28;20116;-70
2023/03/24 03:08:46;;;;;;;5.75;2.70;;;;;;;12.17;100.00;99704.41;5014604;28;20026;-70
2023/03/24 03:11:14;;;;;;;4.93;2.97;;;;;;;12.19;100.00;99713.22;5014489;28;20379;-70
2023/03/24 03:13:47;;;;;;;4.78;2.88;;;;;;;12.21;100.00;99718.50;5014405;28;20018;-70
2023/03/24 03:16:18;;;;;;;4.30;2.70;;;;;;;12.19;100.00;99730.88;5014424;28;20472;-70
2023/03/24 03:18:54;;;;;;;4.32;2.65;;;;;;;12.19;100.00;99733.53;5014527;28;20395;-69
2023/03/24 03:21:23;;;;;;;4.45;2.60;;;;;;;12.15;100.00;99737.97;5014219;28;20076;-69
2023/03/24 03:23:55;;;;;;;3.90;2.78;;;;;;;12.14;100.00;99744.19;5014307;28;20030;-70
2023/03/24 03:26:25;;;;;;;2.97;2.17;;;;;;;12.11;99.20;99746.84;5014359;28;20017;-69
2023/03/24 03:28:56;;;;;;;5.13;2.42;;;;;;;12.03;98.77;99751.38;5014240;28;20269;-69
2023/03/24 03:31:30;;;;;;;5.05;2.47;;;;;;;11.96;98.83;99753.25;5014530;28;20044;-69
2023/03/24 03:34:03;;;;;;;4.82;2.60;;;;;;;11.88;98.04;99756.88;5014503;28;20026;-70
2023/03/24 03:36:34;;;;;;;4.57;2.05;;;;;;;11.84;95.55;99776.34;5013736;28;20041;-70
2023/03/24 03:39:10;;;;;;;5.20;2.30;;;;;;;11.77;94.94;99794.88;5014180;28;20390;-69
2023/03/24 03:41:37;;;;;;;5.90;2.30;;;;;;;11.69;93.58;99802.06;5014114;28;20026;-70
2023/03/24 03:44:02;;;;;;;2.92;1.80;;;;;;;11.66;92.45;99815.31;5014312;28;20427;-70
2023/03/24 03:46:28;;;;;;;3.17;1.70;;;;;;;11.56;91.24;99802.16;5014073;28;20137;-69
2023/03/24 03:48:53;;;;;;;3.63;1.83;;;;;;;11.47;91.80;99809.31;5013926;28;20106;-70
2023/03/24 03:51:19;;;;;;;2.90;1.73;;;;;;;11.43;91.08;99817.28;5013355;28;20066;-70
2023/03/24 03:53:51;;;;;;;3.72;1.77;;;;;;;11.33;91.22;99829.72;5013822;28;20054;-68
2023/03/24 03:56:19;;;;;;;5.55;2.20;;;;;;;11.31;92.21;99833.28;5013700;28;20025;-70
2023/03/24 03:58:46;;;;;;;5.75;2.00;;;;;;;11.26;92.27;99842.13;5013711;28;20022;-69
2023/03/24 04:01:14;;;;;;;3.42;1.92;;;;;;;11.21;92.55;99835.97;5013983;28;20030;-68
2023/03/24 04:04:01;;;;;;;9.02;2.17;;;;;;;11.19;91.54;99866.00;5013729;28;20518;-68
2023/03/24 04:06:36;;;;;;;5.97;3.33;;;;;;;11.18;90.53;99859.84;5013661;28;20037;-69
2023/03/24 04:09:43;;;;;;;7.63;3.65;;;;;;;11.07;91.39;99851.09;5013551;28;20076;-69
2023/03/24 04:12:19;;;;;;;9.88;4.07;;;;;;;11.02;89.48;99864.34;5013024;28;20116;-68
2023/03/24 04:15:28;;;;;;;8.50;4.45;;;;;;;10.93;90.14;99876.75;5013567;28;20026;-69
2023/03/24 04:18:05;;;;;;;7.38;3.38;;;;;;;10.82;88.75;99868.88;5013600;28;20471;-70
2023/03/24 04:20:51;;;;;;;9.63;3.50;;;;;;;10.74;88.54;99884.75;5013327;28;20029;-70
2023/03/24 04:23:27;;;;;;;9.07;2.97;;;;;;;10.74;89.02;99911.19;5013564;28;20026;-69
2023/03/24 04:25:56;;;;;;;8.32;2.92;;;;;;;10.66;88.83;99906.81;5013407;28;20021;-70
2023/03/24 04:28:46;;;;;;;10.30;2.75;;;;;;;10.63;89.47;99901.56;5013280;28;20026;-70
2023/03/24 04:31:30;;;;;;;6.78;2.95;;;;;;;10.59;90.08;99900.72;5013272;28;20383;-69
2023/03/24 04:34:24;;;;;;;6.82;2.90;;;;;;;10.59;91.11;99899.84;5013465;28;20399;-68
2023/03/24 04:36:54;;;;;;;8.77;2.70;;;;;;;10.50;89.95;99893.69;4989873;28;20045;-68
2023/03/24 04:39:26;;;;;;;9.48;2.60;;;;;;;10.43;90.68;99905.16;5013323;28;20029;-69
2023/03/24 04:41:55;;;;;;;10.60;2.55;;;;;;;10.43;90.04;99913.09;5013366;28;20022;-69
2023/03/24 04:44:21;;;;;;;12.55;2.28;;;;;;;10.36;90.04;99921.91;5013161;28;20060;-68
2023/03/24 04:46:53;;;;;;;8.65;2.30;;;;;;;10.37;89.84;99925.47;5013136;28;20113;-68
2023/03/24 04:49:18;;;;;;;9.57;2.47;;;;;;;10.33;90.10;99924.59;5016404;28;20022;-69
2023/03/24 04:51:44;;;;;;;8.15;2.40;;;;;;;10.31;89.98;99943.94;5016797;28;20041;-67
2023/03/24 04:54:10;;;;;;;6.03;2.20;;;;;;;10.25;90.36;99927.25;5017096;28;20557;-68
2023/03/24 04:56:39;;;;;;;8.43;2.50;;;;;;;10.22;90.83;99921.03;5017088;28;20030;-68
2023/03/24 04:59:06;;;;;;;9.88;2.65;;;;;;;10.18;90.49;99935.13;5017335;28;20022;-69
2023/03/24 05:01:36;;;;;;;8.93;2.63;;;;;;;10.14;90.91;99936.03;5017152;28;20068;-68
2023/03/24 05:04:03;;;;;;;6.25;2.63;;;;;;;10.15;90.72;99943.06;5016911;28;20037;-68
2023/03/24 05:06:29;;;;;;;9.23;2.78;;;;;;;10.15;90.79;99951.88;5015507;28;20538;-67
2023/03/24 05:08:57;;;;;;;8.43;2.80;;;;;;;10.11;90.86;99942.22;5016850;28;20076;-68
2023/03/24 05:11:24;;;;;;;8.77;2.70;;;;;;;10.07;90.33;99939.56;5016836;28;20110;-68
2023/03/24 05:13:50;;;;;;;11.85;3.03;;;;;;;10.08;89.97;99943.97;5016964;28;20045;-67
2023/03/24 05:16:16;;;;;;;8.18;3.15;;;;;;;10.02;89.88;99951.03;5016581;28;20084;-69
2023/03/24 05:18:41;;;;;;;10.68;2.90;;;;;;;10.01;89.44;99978.28;5016640;28;20381;-68
2023/03/24 05:21:07;;;;;;;8.00;3.03;;;;;;;9.99;89.43;99968.63;5016687;28;20034;-68
2023/03/24 05:23:32;;;;;;;10.23;3.10;;;;;;;9.96;89.88;99977.41;5016489;28;20057;-68
2023/03/24 05:25:58;;;;;;;12.88;3.13;;;;;;;9.93;90.58;99966.84;5016602;28;20058;-67
2023/03/24 05:28:23;;;;;;;9.00;3.38;;;;;;;9.91;90.79;99978.28;5016394;28;20133;-68
2023/03/24 05:30:49;;;;;;;9.90;3.08;;;;;;;9.90;90.95;99980.06;5016491;28;20052;-68
2023/03/24 05:33:14;;;;;;;14.50;3.40;;;;;;;9.86;91.45;99990.63;5016274;28;20026;-68
2023/03/24 05:35:40;;;;;;;8.95;2.65;;;;;;;9.84;91.26;99987.09;5016014;28;20065;-68
2023/03/24 05:38:05;;;;;;;7.95;2.80;;;;;;;9.82;91.35;99987.09;4997886;28;20056;-69
2023/03/24 05:40:30;;;;;;;11.15;2.85;;;;;;;9.81;91.55;99987.97;5015721;28;20396;-68
2023/03/24 05:42:56;;;;;;;10.00;2.70;;;;;;;9.83;91.61;99991.47;5015791;28;20030;-68
2023/03/24 05:45:21;;;;;;;13.80;2.67;;;;;;;9.81;91.50;99993.25;5015518;28;20026;-68
2023/03/24 05:47:47;;;;;;;8.25;2.50;;;;;;;9.83;91.12;100001.16;5015623;28;20022;-67
2023/03/24 05:50:12;;;;;;;8.43;2.45;;;;;;;9.85;90.88;99997.66;5015099;28;20081;-69
2023/03/24 05:52:38;;;;;;;8.55;2.75;;;;;;;9.84;90.61;100006.44;5015299;28;20041;-68
2023/03/24 05:55:04;;;;;;;13.50;2.78;;;;;;;9.85;90.87;100009.94;5015329;28;20372;-68
2023/03/24 05:57:29;;;;;;;12.98;3.20;;;;;;;9.86;90.83;100014.38;4997595;28;20028;-68
2023/03/24 05:59:55;;;;;;;9.10;2.88;;;;;;;9.83;90.79;100007.31;5015479;28;20044;-68
2023/03/24 06:02:21;;;;;;;13.07;3.10;;;;;;;9.80;90.71;100002.03;5015295;28;20034;-67
2023/03/24 06:04:47;;;;;;;11.98;3.03;;;;;;;9.88;90.69;100008.19;5015155;28;20088;-68
2023/03/24 06:07:14;;;;;;;9.50;3.30;;;;;;;9.93;89.94;100016.97;5015028;28;20104;-68
2023/03/24 06:09:41;;;;;;;10.10;2.97;;;;;;;9.97;89.87;100012.59;5015124;28;20037;-69
2023/03/24 06:12:07;;;;;;;8.77;2.78;;;;;;;10.05;89.92;100005.53;5015008;28;20033;-68
2023/03/24 06:14:33;;;;;;;8.85;2.80;;;;;;;10.11;89.08;100002.91;5014977;28;20080;-67
2023/03/24 06:16:58;;;;;;;15.20;2.80;;;;;;;10.20;88.76;100007.31;5014715;28;20233;-68
2023/03/24 06:19:25;;;;;;;14.07;3.00;;;;;;;10.27;88.05;100014.34;5014874;28;20033;-68
2023/03/24 06:21:51;;;;;;;8.27;2.63;;;;;;;10.35;87.56;100017.88;5014606;28;20081;-68
2023/03/24 06:24:18;;;;;;;10.48;2.88;;;;;;;10.42;87.27;100027.53;5014876;28;20026;-68
2023/03/24 06:26:44;;;;;;;9.68;2.45;;;;;;;10.45;86.00;100019.63;5015057;28;20125;-68
2023/03/24 06:29:11;;;;;;;11.05;2.40;;;;;;;10.63;85.94;100041.59;5014642;28;20112;-67
2023/03/24 06:31:37;;;;;;;14.70;2.67;;;;;;;10.69;86.12;100049.50;5014972;28;20129;-66
2023/03/24 06:34:03;;;;;;;11.35;2.90;;;;;;;10.70;85.49;100038.03;5014524;28;20030;-67
2023/03/24 06:36:28;;;;;;;15.25;3.13;;;;;;;10.76;85.00;100040.69;5014372;28;20033;-68
2023/03/24 06:38:55;;;;;;;13.85;2.78;;;;;;;10.72;84.93;100039.81;5014498;28;20053;-68
2023/03/24 06:41:21;;;;;;;10.10;2.78;;;;;;;10.67;84.36;100049.50;4996916;28;20060;-68
2023/03/24 06:43:46;;;;;;;15.43;2.80;;;;;;;10.61;84.71;100048.63;5014506;28;20504;-68
2023/03/24 06:46:11;;;;;;;12.30;2.55;;;;;;;10.53;84.79;100051.28;5014417;28;20032;-68
2023/03/24 06:48:37;;;;;;;13.73;2.67;;;;;;;10.54;85.54;100047.78;5013708;28;20403;-68
2023/03/24 06:51:04;;;;;;;10.18;2.65;;;;;;;10.69;85.35;100053.00;5013937;28;20399;-69
2023/03/24 06:53:29;;;;;;;10.20;3.15;;;;;;;10.82;84.87;100045.94;5014149;28;20049;-68
2023/03/24 06:55:55;;;;;;;15.93;2.95;;;;;;;10.90;84.18;100048.56;5014134;28;20053;-68
2023/03/24 06:58:21;;;;;;;12.65;2.50;;;;;;;10.95;84.72;100054.69;5014255;28;20026;-68
2023/03/24 07:00:46;;;;;;;12.70;3.05;;;;;;;11.09;84.58;100057.28;5014071;28;20030;-67
2023/03/24 07:03:14;;;;;;;13.57;3.03;;;;;;;11.27;84.95;100060.75;5014103;28;20030;-68
2023/03/24 07:05:42;;;;;;;16.88;2.70;;;;;;;11.45;83.11;100067.72;5014043;28;20534;-68
2023/03/24 07:08:08;;;;;;;15.00;3.28;;;;;;;11.57;82.45;100064.13;5013917;28;20026;-67
2023/03/24 07:10:35;;;;;;;10.63;2.28;;;;;;;11.66;82.51;100071.13;5013439;28;20030;-67
2023/03/24 07:13:02;;;;;;;14.23;2.80;;;;;;;11.72;81.40;100068.41;5013893;28;20084;-67
2023/03/24 07:15:28;;;;;;;13.68;2.70;;;;;;;11.86;81.30;100065.72;5013911;28;20030;-68
2023/03/24 07:17:53;;;;;;;13.73;2.67;;;;;;;11.99;81.51;100070.94;5013837;28;20041;-68
2023/03/24 07:20:19;;;;;;;10.65;2.78;;;;;;;12.05;79.19;100070.00;5013730;28;20030;-67
2023/03/24 07:22:45;;;;;;;7.53;2.30;;;;;;;12.14;79.06;100079.63;5013541;28;20021;-67
2023/03/24 07:25:13;;;;;;;14.95;3.22;;;;;;;12.24;79.64;100083.94;5014055;28;20033;-67
2023/03/24 07:27:39;;;;;;;14.88;2.78;;;;;;;12.38;78.60;100092.69;5013586;28;20030;-68
2023/03/24 07:30:06;;;;;;;9.88;2.25;;;;;;;12.48;77.84;100097.00;5013625;28;20329;-67
2023/03/24 07:32:38;;;;;;;14.32;2.78;;;;;;;12.49;77.08;100088.16;5013581;28;20053;-67
2023/03/24 07:35:09;;;;;;;15.50;2.75;;;;;;;12.60;77.18;100093.38;5013659;28;20022;-67
2023/03/24 07:37:35;;;;;;;13.63;3.13;;;;;;;12.69;77.21;100087.97;5013617;28;20095;-68
2023/03/24 07:40:04;;;;;;;13.82;2.65;;;;;;;12.77;76.08;100111.75;5013580;28;20474;-67
2023/03/24 07:42:30;;;;;;;14.60;2.83;;;;;;;12.84;76.24;100092.22;5013683;28;20037;-66
2023/03/24 07:44:55;;;;;;;10.23;3.00;;;;;;;12.98;76.78;100092.09;5013418;28;20522;-66
2023/03/24 07:47:21;;;;;;;11.05;2.75;;;;;;;13.09;75.86;100089.31;5013206;28;20048;-67
2023/03/24 07:49:46;;;;;;;10.45;2.83;;;;;;;13.19;75.17;100102.44;5010560;28;20196;-66
2023/03/24 07:52:12;;;;;;;9.32;2.63;;;;;;;13.32;75.59;100097.00;5012924;28;20162;-67
2023/03/24 07:54:37;;;;;;;11.80;3.00;;;;;;;13.27;74.85;100103.28;5012914;28;20061;-66
2023/03/24 07:57:02;;;;;;;12.85;3.00;;;;;;;13.39;74.78;100111.97;5013091;28;20113;-66
2023/03/24 07:59:28;;;;;;;12.52;2.88;;;;;;;13.48;73.61;100114.50;5013067;28;20023;-67
2023/03/24 08:01:53;;;;;;;11.20;2.80;;;;;;;13.54;72.78;100109.13;5013310;28;20148;-66
2023/03/24 08:04:19;;;;;;;12.70;3.03;;;;;;;13.65;73.89;100117.81;5013012;28;20138;-66
2023/03/24 08:06:45;;;;;;;13.80;3.03;;;;;;;13.89;74.31;100107.75;5012807;28;20476;-66
2023/03/24 08:09:11;;;;;;;11.48;2.75;;;;;;;14.01;72.49;100119.06;5012820;28;20045;-66
2023/03/24 08:11:37;;;;;;;13.80;2.97;;;;;;;14.01;72.53;100118.19;5012859;28;20053;-66
2023/03/24 08:14:03;;;;;;;14.73;3.00;;;;;;;13.86;71.85;100121.06;5012933;28;20463;-66
2023/03/24 08:16:28;;;;;;;13.95;2.78;;;;;;;13.60;71.58;100127.63;5012678;28;20097;-66
2023/03/24 08:18:57;;;;;;;11.60;3.00;;;;;;;13.36;72.42;100120.88;5013019;28;20026;-66
2023/03/24 08:21:23;;;;;;;14.02;3.03;;;;;;;13.25;73.04;100144.84;5012805;28;20387;-65
2023/03/24 08:23:48;;;;;;;10.82;2.60;;;;;;;13.04;73.54;100153.88;5012209;28;20072;-66
2023/03/24 08:26:14;;;;;;;12.20;2.58;;;;;;;12.91;74.81;100135.47;4995014;28;20038;-66
2023/03/24 08:28:40;;;;;;;13.02;3.10;;;;;;;13.02;74.84;100152.16;5012628;28;20108;-66
2023/03/24 08:31:06;;;;;;;16.20;2.92;;;;;;;13.19;73.00;100147.56;5012411;28;20065;-67
2023/03/24 08:33:32;;;;;;;11.65;2.92;;;;;;;13.43;72.61;100145.53;5012525;28;20057;-66
2023/03/24 08:35:59;;;;;;;12.85;2.90;;;;;;;13.63;73.08;100146.16;5012917;28;20038;-68
2023/03/24 08:38:31;;;;;;;8.82;2.78;;;;;;;13.69;73.04;100147.84;5011069;28;20496;-67
2023/03/24 08:41:05;;;;;;;;;;;;;;;13.78;73.84;100158.34;5013178;28;20405;-67
2023/03/24 08:43:32;;;;;;;9.30;2.60;;;;;;;13.69;70.68;100159.34;5012425;28;19920;-66
2023/03/24 08:46:00;;;;;;;8.75;2.75;;;;;;;13.59;71.39;100154.19;5012883;28;20156;-67
2023/03/24 08:48:27;;;;;;;13.38;2.85;;;;;;;13.46;70.99;100154.34;5012441;28;20100;-68
2023/03/24 08:50:53;;;;;;;10.93;2.75;;;;;;;13.42;71.07;100149.97;5009966;28;20038;-67
2023/03/24 08:53:19;;;;;;;13.00;2.75;;;;;;;13.40;71.00;100154.38;5012287;28;20461;-67
2023/03/24 08:55:44;;;;;;;9.23;2.67;;;;;;;13.37;70.94;100151.81;5012276;28;20049;-67
2023/03/24 08:58:15;;;;;;;10.98;2.65;;;;;;;13.21;71.64;100156.34;5012343;28;20026;-66
2023/03/24 09:00:43;;;;;;;10.95;2.70;;;;;;;13.04;70.65;100167.16;5012387;28;20125;-67
2023/03/24 09:03:12;;;;;;;12.80;2.70;;;;;;;12.97;71.72;100169.88;5012450;28;20026;-66
2023/03/24 09:05:38;;;;;;;13.70;3.00;;;;;;;12.96;72.90;100173.44;5012426;28;20018;-67
2023/03/24 09:08:03;;;;;;;12.13;3.60;;;;;;;12.81;72.32;100170.94;5012344;28;20052;-66
2023/03/24 09:10:28;;;;;;;9.82;2.47;;;;;;;12.75;73.51;100175.38;5012192;28;20063;-66
2023/03/24 09:12:57;;;;;;;10.40;2.63;;;;;;;12.61;73.96;100173.75;5012369;28;20480;-67
2023/03/24 09:15:22;;;;;;;17.52;3.28;;;;;;;12.57;73.55;100177.31;5012134;28;20029;-66
2023/03/24 09:17:48;;;;;;;8.30;2.38;;;;;;;12.53;74.18;100171.16;5012264;28;20030;-66
2023/03/24 09:20:14;;;;;;;10.40;2.90;;;;;;;12.61;72.79;100179.06;5012285;28;20099;-67
2023/03/24 09:22:43;;;;;;;12.60;3.05;;;;;;;12.91;73.27;100184.06;5012156;28;20041;-67
2023/03/24 09:25:11;;;;;;;12.90;2.92;;;;;;;13.21;72.74;100192.63;5012234;28;20030;-67
2023/03/24 09:27:40;;;;;;;9.32;2.65;;;;;;;13.32;71.01;100172.22;5012137;28;20029;-67
2023/03/24 09:30:08;;;;;;;13.57;3.17;;;;;;;13.29;71.04;100182.84;5012538;28;20045;-68
2023/03/24 09:32:34;;;;;;;10.88;2.70;;;;;;;13.18;70.82;100185.56;5012251;28;20036;-67
2023/03/24 09:35:00;;;;;;;10.82;3.03;;;;;;;13.04;72.19;100180.41;5014755;28;20108;-67
2023/03/24 09:37:28;;;;;;;9.07;2.80;;;;;;;12.84;76.10;100202.69;5015653;28;20061;-67
2023/03/24 09:39:54;;;;;;;13.48;2.97;;;;;;;12.68;77.48;100201.97;5015853;28;20423;-67
2023/03/24 09:42:25;;;;;;;12.48;2.70;;;;;;;12.53;78.31;100195.88;5015845;28;20038;-67
2023/03/24 09:44:57;;;;;;;9.27;2.80;;;;;;;12.45;79.88;100195.06;5015787;28;20081;-67
2023/03/24 09:47:49;;;;;;;;;;;;;;;12.56;78.78;100196.75;5016286;28;20041;-67
2023/03/24 09:50:29;;;;;;;10.48;2.65;;;;;;;12.66;79.50;100201.97;5012217;28;19976;-68
2023/03/24 09:53:01;;;;;;;10.10;2.80;;;;;;;12.70;79.29;100203.69;5015423;28;20033;-67
2023/03/24 09:55:28;;;;;;;11.85;2.90;;;;;;;12.79;79.04;100203.63;5015352;28;20049;-67
2023/03/24 09:57:59;;;;;;;12.60;2.80;;;;;;;12.85;78.00;100220.34;5015571;28;20073;-67
2023/03/24 10:00:30;;;;;;;13.23;2.95;;;;;;;12.77;75.97;100202.78;5015494;28;20065;-67
2023/03/24 10:03:00;;;;;;;13.93;2.80;;;;;;;12.77;76.61;100215.16;5015300;28;20026;-67
2023/03/24 10:05:34;;;;;;;11.20;2.90;;;;;;;12.89;76.36;100212.41;5015406;28;20030;-67
2023/03/24 10:08:14;;;;;;;9.02;2.90;;;;;;;13.01;75.95;100214.03;5015430;28;20087;-67
2023/03/24 10:10:53;;;;;;;11.10;2.88;;;;;;;13.11;75.16;100210.41;5015068;28;20040;-66
2023/03/24 10:13:37;;;;;;;10.57;2.78;;;;;;;13.12;75.67;100206.88;5015167;28;20502;-67
2023/03/24 10:16:32;;;;;;;14.77;3.00;;;;;;;13.10;75.56;100205.09;5014803;28;20026;-67
2023/03/24 10:18:58;;;;;;;10.82;2.65;;;;;;;13.04;74.70;100206.94;5015090;28;20029;-68
2023/03/24 10:21:26;;;;;;;12.80;3.42;;;;;;;13.04;74.22;100214.88;5014535;28;20037;-68
2023/03/24 10:24:09;;;;;;;9.52;2.80;;;;;;;13.10;75.04;100213.06;5014890;28;20056;-67
2023/03/24 10:27:01;;;;;;;12.13;2.83;;;;;;;13.13;73.30;100224.53;5015006;28;20053;-67
2023/03/24 10:29:35;;;;;;;9.65;2.60;;;;;;;13.14;71.82;100217.44;5014923;28;20097;-67
2023/03/24 10:32:19;;;;;;;10.10;2.65;;;;;;;13.07;71.32;100219.31;5014654;28;20530;-66
2023/03/24 10:34:51;;;;;;;10.40;2.67;;;;;;;13.07;71.15;100211.34;5015021;28;20036;-67
2023/03/24 10:37:17;;;;;;;10.23;2.63;;;;;;;13.15;70.71;100213.94;5014293;28;20384;-67
2023/03/24 10:39:43;;;;;;;13.63;2.75;;;;;;;13.17;69.78;100215.66;5014927;28;20034;-67
2023/03/24 10:42:14;;;;;;;9.02;2.70;;;;;;;13.28;70.00;100218.25;5014570;28;20029;-68
2023/03/24 10:44:40;;;;;;;13.07;2.92;;;;;;;13.65;70.02;100193.91;5014918;28;20053;-67
2023/03/24 10:47:09;;;;;;;7.30;2.28;;;;;;;14.02;65.85;100194.31;5013548;28;20480;-67
2023/03/24 10:49:35;;;;;;;10.02;2.65;;;;;;;14.09;66.04;100198.66;5014444;28;20153;-68
2023/03/24 10:52:07;;;;;;;10.98;2.67;;;;;;;14.09;65.11;100206.63;5013886;28;20053;-67
2023/03/24 10:54:32;;;;;;;12.52;2.40;;;;;;;14.07;66.19;100205.75;5014365;28;20037;-67
2023/03/24 10:56:59;;;;;;;8.02;2.38;;;;;;;14.04;65.06;100206.66;5014199;28;20030;-67
2023/03/24 10:59:30;;;;;;;9.57;2.83;;;;;;;14.03;66.13;100206.72;5014040;28;20433;-68
2023/03/24 11:02:16;;;;;;;7.40;2.67;;;;;;;14.04;67.13;100201.34;5014205;28;20037;-68
2023/03/24 11:04:53;;;;;;;11.13;2.42;;;;;;;14.07;65.79;100203.09;5013648;28;20045;-68
2023/03/24 11:07:21;;;;;;;7.88;2.45;;;;;;;14.21;66.53;100201.13;5014138;28;20037;-68
2023/03/24 11:10:14;;;;;;;9.00;2.60;;;;;;;14.45;67.16;100212.31;4996318;28;20022;-68
2023/03/24 11:12:42;;;;;;;11.82;2.78;;;;;;;14.76;64.85;100191.44;5014156;28;20482;-68
2023/03/24 11:15:16;;;;;;;8.48;2.72;;;;;;;15.12;65.33;100202.38;5014046;28;20105;-67
2023/03/24 11:17:43;;;;;;;7.95;2.40;;;;;;;15.31;63.05;100211.75;4996344;28;20468;-68
2023/03/24 11:20:26;;;;;;;12.02;2.92;;;;;;;15.12;62.87;100210.34;5013708;28;20029;-69
2023/03/24 11:23:26;;;;;;;12.45;2.90;;;;;;;15.02;62.72;100218.47;5014069;28;20097;-68
2023/03/24 11:26:01;;;;;;;8.35;2.60;;;;;;;14.83;62.52;100206.41;5013399;28;20026;-68
2023/03/24 11:28:28;;;;;;;9.77;2.70;;;;;;;14.85;63.98;100204.59;5014003;28;20026;-68
2023/03/24 11:30:54;;;;;;;10.32;2.60;;;;;;;14.88;61.41;100214.31;5013639;28;20029;-68
2023/03/24 11:33:32;;;;;;;8.02;2.50;;;;;;;14.78;62.08;100195.84;5013714;28;20065;-68
2023/03/24 11:35:57;;;;;;;11.10;2.53;;;;;;;14.73;61.87;100196.81;5013562;28;20084;-67
2023/03/24 11:38:33;;;;;;;10.13;2.50;;;;;;;14.74;62.05;100202.13;5012211;28;20022;-67
2023/03/24 11:41:03;;;;;;;10.50;2.90;;;;;;;14.64;61.35;100205.81;5013464;28;20052;-68
2023/03/24 11:43:29;;;;;;;7.15;2.53;;;;;;;14.57;62.77;100203.31;5013527;28;20030;-68